Ayfer Ka — TCTA3 — position and weather

sailwx.info

Track history (hours):
 
Tides and Currents Weather Stations Pressure Air Temp Water Temp Dewpoint Dewpoint Depression Visibility Wind Speed Wind Dir Waves Ship Positions

Ayfer Ka

Last reported at 2014-Jul-26 15:14 UTC. Time now 2014-Jul-28 20:30 UTC.
Position N 41°00' E 028°60'.

Length 91 m; draft 6.4 m.

Type: Ship (hazmat cat C). MMSI: 271000953.

Date/timePositionNaut miles runAvg speedWind from/ knotsBaromVisibWave heightAir tempDewpointWater temp
2014-Jul-26 15:14N 41°00' E 028°60'3 3.9
2014-Jul-26 14:33N 40°57' E 028°59'6 0.6
2014-Jul-26 04:03N 40°56' E 028°52'3 6.8
2014-Jul-26 03:33N 40°53' E 028°54'8 7.8
2014-Jul-26 02:33N 40°49' E 029°02'8 7.7
2014-Jul-26 01:33N 40°49' E 029°12'6 5.6
2014-Jul-26 00:32N 40°45' E 029°19'8 8.0
2014-Jul-25 23:32N 40°45' E 029°29'11 0.5
2014-Jul-25 01:31N 40°44' E 029°44'10 7.9
2014-Jul-25 00:18N 40°45' E 029°31'6 7.6
2014-Jul-24 23:33N 40°44' E 029°24'7 6.8
2014-Jul-24 22:33N 40°46' E 029°15'4 4.1
2014-Jul-24 21:33N 40°49' E 029°11'7 6.8
2014-Jul-24 20:33N 40°46' E 029°03'7 7.1
2014-Jul-24 19:33N 40°45' E 028°54'14 0.3
2014-Jul-22 23:27N 40°36' E 028°40'18 7.7
2014-Jul-22 21:05N 40°26' E 029°00'  
Track history (hours):
 
Tides and Currents Weather Stations Pressure Air Temp Water Temp Dewpoint Dewpoint Depression Visibility Wind Speed Wind Dir Waves Ship Positions

Ayfer Ka

Last reported at 2014-Jul-26 15:14 UTC. Time now 2014-Jul-28 20:30 UTC.
Position N 41°00' E 028°60'.

Length 91 m; draft 6.4 m.

Type: Ship (hazmat cat C). MMSI: 271000953.

Date/timePositionNaut miles runAvg speedWind from/ knotsBaromVisibWave heightAir tempDewpointWater temp
2014-Jul-26 15:14N 41°00' E 028°60'3 3.9
2014-Jul-26 14:33N 40°57' E 028°59'6 0.6
2014-Jul-26 04:03N 40°56' E 028°52'3 6.8
2014-Jul-26 03:33N 40°53' E 028°54'8 7.8
2014-Jul-26 02:33N 40°49' E 029°02'8 7.7
2014-Jul-26 01:33N 40°49' E 029°12'6 5.6
2014-Jul-26 00:32N 40°45' E 029°19'8 8.0
2014-Jul-25 23:32N 40°45' E 029°29'11 0.5
2014-Jul-25 01:31N 40°44' E 029°44'10 7.9
2014-Jul-25 00:18N 40°45' E 029°31'6 7.6
2014-Jul-24 23:33N 40°44' E 029°24'7 6.8
2014-Jul-24 22:33N 40°46' E 029°15'4 4.1
2014-Jul-24 21:33N 40°49' E 029°11'7 6.8
2014-Jul-24 20:33N 40°46' E 029°03'7 7.1
2014-Jul-24 19:33N 40°45' E 028°54'14 0.3
2014-Jul-22 23:27N 40°36' E 028°40'18 7.7
2014-Jul-22 21:05N 40°26' E 029°00'  

Dump ship's entire track history